Time;durP1;ratioP1;P1;durP2;ratioP2;P2;SDS_P1;SDS_P2;PMS_P1;PMS_P2;Temp;Humidity;BMP_temperature;BMP_pressure;BME280_temperature;BME280_humidity;BME280_pressure;Samples;Min_cycle;Max_cycle;Signal;HPM_P1;HPM_P2
2022/03/23 00:01:41;;;;;;;17.92;9.70;;;5.50;70.40;;;;;;5112515;28;20051;-71
2022/03/23 00:04:45;;;;;;;18.25;9.85;;;5.50;69.20;;;;;;5112765;28;20038;-71
2022/03/23 00:07:49;;;;;;;19.92;10.48;;;5.50;69.90;;;;;;5112412;28;20051;-71
2022/03/23 00:10:54;;;;;;;20.75;12.32;;;5.50;69.70;;;;;;5112502;28;20039;-71
2022/03/23 00:13:57;;;;;;;22.73;13.68;;;5.50;71.00;;;;;;5112120;28;20062;-71
2022/03/23 00:17:03;;;;;;;21.85;12.75;;;5.60;71.70;;;;;;5112490;28;20066;-71
2022/03/23 00:20:08;;;;;;;18.98;10.80;;;5.60;72.10;;;;;;5112342;28;20054;-71
2022/03/23 00:23:13;;;;;;;20.25;10.90;;;5.60;71.90;;;;;;5112150;28;20042;-71
2022/03/23 00:26:17;;;;;;;18.33;10.93;;;5.50;72.00;;;;;;5112200;28;20437;-71
2022/03/23 00:29:22;;;;;;;21.52;12.23;;;5.50;72.40;;;;;;5111613;28;20051;-71
2022/03/23 00:32:26;;;;;;;21.17;11.63;;;5.50;73.00;;;;;;5110896;28;20035;-71
2022/03/23 00:35:32;;;;;;;26.20;13.40;;;5.40;73.00;;;;;;5112071;28;20054;-71
2022/03/23 00:38:36;;;;;;;29.77;12.95;;;5.40;73.30;;;;;;5112151;28;20043;-71
2022/03/23 00:41:41;;;;;;;23.88;13.15;;;5.40;73.80;;;;;;5112050;28;20046;-71
2022/03/23 00:44:45;;;;;;;24.77;12.48;;;5.30;74.10;;;;;;5111910;28;20058;-71
2022/03/23 00:47:49;;;;;;;43.63;13.10;;;5.30;74.30;;;;;;5111863;28;20339;-71
2022/03/23 00:50:53;;;;;;;21.25;12.98;;;5.30;74.60;;;;;;5111282;28;20066;-71
2022/03/23 00:53:57;;;;;;;27.10;13.80;;;5.30;74.80;;;;;;5111004;28;20046;-71
2022/03/23 00:57:03;;;;;;;25.08;11.88;;;5.30;74.60;;;;;;5111255;28;20058;-71
2022/03/23 01:00:12;;;;;;;28.50;11.90;;;5.40;74.50;;;;;;5110819;28;20050;-71
2022/03/23 01:03:16;;;;;;;21.83;12.70;;;5.40;74.20;;;;;;5111034;28;20046;-71
2022/03/23 01:06:20;;;;;;;24.50;12.10;;;5.30;74.00;;;;;;5111265;28;20034;-71
2022/03/23 01:09:25;;;;;;;24.83;13.75;;;5.40;74.10;;;;;;5111701;28;20114;-71
2022/03/23 01:12:31;;;;;;;25.50;13.43;;;5.40;73.90;;;;;;5110247;28;20054;-71
2022/03/23 01:15:36;;;;;;;22.52;11.60;;;5.30;74.50;;;;;;5110678;28;20042;-71
2022/03/23 01:18:42;;;;;;;19.67;11.20;;;5.20;74.80;;;;;;5110539;28;20051;-71
2022/03/23 01:21:49;;;;;;;21.52;12.63;;;5.10;74.90;;;;;;5110361;28;20047;-71
2022/03/23 01:24:53;;;;;;;25.10;11.70;;;5.10;75.20;;;;;;5110998;28;20224;-71
2022/03/23 01:27:57;;;;;;;24.05;12.23;;;5.10;75.20;;;;;;5111150;28;20039;-71
2022/03/23 01:31:01;;;;;;;20.95;11.95;;;5.10;75.20;;;;;;5111256;28;20050;-71
2022/03/23 01:34:05;;;;;;;27.75;14.75;;;5.10;75.60;;;;;;5110203;28;20054;-71
2022/03/23 01:37:09;;;;;;;23.90;13.05;;;5.00;76.60;;;;;;5111030;28;20512;-72
2022/03/23 01:40:13;;;;;;;23.40;12.38;;;4.90;75.90;;;;;;5111186;28;20042;-71
2022/03/23 01:43:17;;;;;;;22.40;11.90;;;5.00;75.60;;;;;;5111036;28;20046;-71
2022/03/23 01:46:21;;;;;;;23.35;11.40;;;5.00;75.60;;;;;;5109906;28;20039;-71
2022/03/23 01:49:25;;;;;;;20.35;11.00;;;5.00;75.50;;;;;;5111009;28;20120;-71
2022/03/23 01:52:31;;;;;;;20.58;11.48;;;5.10;74.70;;;;;;5110664;28;20058;-70
2022/03/23 01:55:38;;;;;;;21.50;12.07;;;5.10;74.50;;;;;;5109848;28;20039;-71
2022/03/23 01:58:42;;;;;;;35.58;14.15;;;5.00;75.70;;;;;;5109885;28;20382;-71
2022/03/23 02:01:48;;;;;;;24.52;12.70;;;4.90;75.90;;;;;;5109805;28;20344;-71
2022/03/23 02:04:52;;;;;;;23.90;13.18;;;4.80;76.20;;;;;;5109639;28;20050;-71
2022/03/23 02:07:57;;;;;;;28.30;13.35;;;4.70;77.00;;;;;;5109692;28;20043;-71
2022/03/23 02:11:01;;;;;;;23.70;13.35;;;4.60;77.90;;;;;;5110714;28;20493;-71
2022/03/23 02:14:14;;;;;;;22.95;12.65;;;4.50;78.20;;;;;;5109633;28;20046;-70
2022/03/23 02:17:21;;;;;;;25.60;13.38;;;4.40;78.70;;;;;;5109428;28;20414;-71
2022/03/23 02:20:25;;;;;;;23.30;12.75;;;4.40;78.90;;;;;;5109426;28;20067;-70
2022/03/23 02:23:29;;;;;;;24.85;13.25;;;4.40;78.70;;;;;;5109486;28;20050;-70
2022/03/23 02:26:33;;;;;;;22.15;12.95;;;4.30;79.00;;;;;;5109664;28;20504;-70
2022/03/23 02:29:37;;;;;;;28.20;12.98;;;4.30;79.60;;;;;;5110175;28;20398;-70
2022/03/23 02:32:41;;;;;;;20.77;12.20;;;4.10;79.90;;;;;;5110017;28;20059;-71
2022/03/23 02:35:45;;;;;;;21.80;12.90;;;4.00;80.60;;;;;;5109165;28;20054;-70
2022/03/23 02:38:49;;;;;;;23.13;12.38;;;3.90;81.10;;;;;;5110329;28;20046;-71
2022/03/23 02:41:56;;;;;;;20.10;11.02;;;3.90;81.20;;;;;;5109981;28;20043;-71
2022/03/23 02:45:00;;;;;;;23.70;13.40;;;3.90;81.50;;;;;;5110146;28;20038;-70
2022/03/23 02:48:06;;;;;;;22.88;12.38;;;3.90;82.00;;;;;;5109910;28;20066;-70
2022/03/23 02:51:09;;;;;;;26.70;13.05;;;3.90;82.60;;;;;;5110245;28;20441;-72
2022/03/23 03:04:49;;;;;;;21.75;12.38;;;4.10;81.40;;;;;;5113950;28;20042;-71
2022/03/23 03:11:19;;;;;;;25.05;12.55;;;4.00;81.80;;;;;;5113751;28;20042;-70
2022/03/23 03:14:23;;;;;;;21.58;13.25;;;4.00;81.70;;;;;;5113898;28;20394;-71
2022/03/23 03:17:27;;;;;;;26.05;12.85;;;4.00;82.30;;;;;;5113276;28;20058;-70
2022/03/23 03:20:31;;;;;;;24.98;13.18;;;3.90;82.70;;;;;;5112149;28;20050;-71
2022/03/23 03:23:38;;;;;;;26.60;14.88;;;3.80;82.90;;;;;;5114181;28;20062;-71
2022/03/23 03:26:44;;;;;;;23.45;12.52;;;3.70;83.70;;;;;;5113149;28;20117;-71
2022/03/23 03:29:48;;;;;;;22.38;12.45;;;3.50;84.50;;;;;;5113641;28;20058;-70
2022/03/23 03:32:52;;;;;;;20.67;12.38;;;3.40;85.00;;;;;;5113710;28;20393;-71
2022/03/23 03:35:56;;;;;;;24.48;13.65;;;3.40;85.80;;;;;;5113250;28;20051;-70
2022/03/23 03:39:00;;;;;;;29.83;15.20;;;3.30;86.50;;;;;;5113598;28;20393;-70
2022/03/23 03:42:04;;;;;;;26.38;15.38;;;3.20;86.60;;;;;;5112759;28;20047;-70
2022/03/23 03:45:09;;;;;;;24.42;13.52;;;3.40;85.50;;;;;;5113193;28;20051;-70
2022/03/23 03:48:13;;;;;;;23.15;13.27;;;3.50;85.40;;;;;;5112912;28;20505;-70
2022/03/23 03:51:17;;;;;;;24.60;12.60;;;3.50;85.00;;;;;;5112982;28;20086;-70
2022/03/23 03:54:21;;;;;;;26.50;12.43;;;3.60;84.50;;;;;;5113195;28;20050;-70
2022/03/23 03:57:26;;;;;;;20.38;11.57;;;3.60;84.10;;;;;;5112342;28;20050;-71
2022/03/23 04:00:31;;;;;;;21.90;12.57;;;3.70;84.20;;;;;;5113361;28;20374;-70
2022/03/23 04:03:34;;;;;;;159.63;79.82;;;3.70;83.50;;;;;;5112853;28;20042;-70
2022/03/23 04:06:38;;;;;;;38.88;20.20;;;3.70;83.90;;;;;;5111756;28;20494;-70
2022/03/23 04:09:42;;;;;;;21.55;12.27;;;3.70;83.50;;;;;;5112463;28;20512;-70
2022/03/23 04:12:47;;;;;;;19.08;11.75;;;3.70;83.90;;;;;;5112499;28;20046;-70
2022/03/23 04:15:50;;;;;;;24.20;12.20;;;3.70;83.50;;;;;;5112815;28;20489;-70
2022/03/23 04:18:55;;;;;;;25.63;13.10;;;3.60;84.10;;;;;;5112333;28;20058;-70
2022/03/23 04:21:59;;;;;;;19.27;11.43;;;3.50;84.70;;;;;;5112113;28;20062;-70
2022/03/23 04:25:03;;;;;;;23.73;12.10;;;3.40;84.40;;;;;;5112329;28;20058;-71
2022/03/23 04:28:07;;;;;;;23.55;11.60;;;3.50;84.30;;;;;;5111708;28;20050;-70
2022/03/23 04:31:11;;;;;;;24.40;13.30;;;3.40;84.90;;;;;;5112197;28;20157;-70
2022/03/23 04:34:15;;;;;;;31.15;14.45;;;3.30;85.90;;;;;;5112261;28;20051;-70
2022/03/23 04:37:19;;;;;;;25.10;13.82;;;3.10;85.80;;;;;;5111568;28;20058;-71
2022/03/23 04:40:24;;;;;;;21.23;11.90;;;3.10;86.10;;;;;;5112347;28;20050;-70
2022/03/23 04:43:28;;;;;;;25.67;12.23;;;3.10;85.70;;;;;;5111903;28;20051;-70
2022/03/23 04:46:32;;;;;;;28.17;12.45;;;3.20;85.80;;;;;;5111350;28;20058;-70
2022/03/23 04:49:36;;;;;;;18.50;11.02;;;3.30;85.60;;;;;;5111875;28;20042;-70
2022/03/23 04:52:42;;;;;;;26.02;12.52;;;3.30;85.60;;;;;;5111804;28;20390;-71
2022/03/23 04:55:46;;;;;;;26.08;12.82;;;3.30;86.40;;;;;;5111672;28;20312;-70
2022/03/23 04:58:51;;;;;;;23.30;12.75;;;3.30;86.00;;;;;;5111617;28;20047;-70
2022/03/23 05:01:54;;;;;;;19.42;11.48;;;3.20;86.30;;;;;;5111207;28;20046;-70
2022/03/23 05:04:58;;;;;;;18.25;10.18;;;3.10;86.40;;;;;;5111586;28;20043;-70
2022/03/23 05:08:02;;;;;;;19.45;10.90;;;3.00;87.00;;;;;;5110988;28;20051;-70
2022/03/23 05:11:06;;;;;;;21.42;11.52;;;3.00;86.60;;;;;;5111670;28;20118;-70
2022/03/23 05:14:10;;;;;;;21.77;11.98;;;3.00;86.00;;;;;;5111544;28;20109;-70
2022/03/23 05:17:15;;;;;;;22.00;11.82;;;3.10;87.20;;;;;;5111112;28;20054;-71
2022/03/23 05:20:20;;;;;;;24.83;11.07;;;3.00;86.50;;;;;;5111205;28;20055;-70
2022/03/23 05:23:23;;;;;;;29.08;13.23;;;3.10;86.40;;;;;;5111220;28;20493;-70
2022/03/23 05:26:27;;;;;;;32.97;17.80;;;3.20;86.30;;;;;;5110951;28;20390;-70
2022/03/23 05:29:32;;;;;;;30.42;16.50;;;3.20;86.00;;;;;;5110682;28;20501;-70
2022/03/23 05:32:39;;;;;;;57.00;31.17;;;3.30;85.60;;;;;;5110805;28;20054;-70
2022/03/23 05:35:43;;;;;;;39.50;21.25;;;3.40;85.50;;;;;;5111118;28;20505;-70
2022/03/23 05:38:47;;;;;;;42.97;23.13;;;3.40;86.60;;;;;;5110789;28;20042;-70
2022/03/23 05:41:51;;;;;;;27.85;15.32;;;3.30;86.00;;;;;;5110859;28;20401;-70
2022/03/23 05:44:55;;;;;;;24.15;14.00;;;3.40;85.90;;;;;;5110906;28;20046;-71
2022/03/23 05:47:59;;;;;;;32.88;14.32;;;3.40;85.90;;;;;;5110131;28;20046;-70
2022/03/23 05:51:03;;;;;;;26.75;16.08;;;3.40;85.80;;;;;;5098017;28;20493;-70
2022/03/23 05:54:07;;;;;;;24.90;13.82;;;3.40;87.80;;;;;;5110694;28;20050;-71
2022/03/23 05:57:11;;;;;;;22.02;12.63;;;3.40;87.10;;;;;;5110331;28;20050;-71
2022/03/23 06:00:15;;;;;;;27.10;14.18;;;3.40;86.50;;;;;;5110229;28;20050;-71
2022/03/23 06:03:19;;;;;;;29.40;13.45;;;4.60;87.00;;;;;;5110724;28;20050;-71
2022/03/23 06:06:23;;;;;;;22.05;12.93;;;7.50;79.30;;;;;;5110016;28;20521;-71
2022/03/23 06:09:27;;;;;;;25.55;13.65;;;9.90;72.30;;;;;;5110446;28;20042;-71
2022/03/23 06:12:32;;;;;;;23.05;12.40;;;12.60;67.80;;;;;;5110417;28;20062;-71
2022/03/23 06:15:37;;;;;;;22.38;12.60;;;14.00;63.70;;;;;;5110705;28;20050;-71
2022/03/23 06:18:41;;;;;;;33.83;13.57;;;15.70;63.30;;;;;;5110995;28;20038;-71
2022/03/23 06:21:45;;;;;;;21.35;12.88;;;17.00;58.60;;;;;;5111454;28;20043;-72
2022/03/23 06:24:50;;;;;;;20.05;12.40;;;15.60;58.40;;;;;;5110545;28;20039;-72
2022/03/23 06:27:54;;;;;;;18.67;11.63;;;15.70;58.90;;;;;;5109962;28;20047;-72
2022/03/23 06:30:59;;;;;;;16.05;11.13;;;15.80;57.10;;;;;;5112094;28;20505;-72
2022/03/23 06:34:04;;;;;;;19.67;11.40;;;16.40;57.70;;;;;;5114755;28;20056;-72
2022/03/23 06:37:09;;;;;;;17.42;10.77;;;18.00;56.30;;;;;;5114529;28;20047;-73
2022/03/23 06:40:14;;;;;;;17.83;10.93;;;18.50;54.60;;;;;;5114623;28;20046;-72
2022/03/23 06:43:18;;;;;;;20.92;10.73;;;19.30;54.10;;;;;;5115403;28;20046;-72
2022/03/23 06:46:23;;;;;;;18.35;11.07;;;19.60;52.50;;;;;;5114272;28;20043;-72
2022/03/23 06:49:27;;;;;;;20.50;12.25;;;18.60;53.20;;;;;;5114579;28;20062;-72
2022/03/23 06:52:31;;;;;;;41.85;25.63;;;17.10;55.00;;;;;;5114118;28;20038;-72
2022/03/23 06:55:36;;;;;;;46.60;26.77;;;16.10;56.60;;;;;;5114553;28;20066;-73
2022/03/23 06:58:39;;;;;;;38.53;22.98;;;17.30;55.30;;;;;;5114267;28;20043;-73
2022/03/23 07:01:43;;;;;;;43.95;26.10;;;18.50;53.40;;;;;;5110127;28;20039;-73
2022/03/23 07:04:48;;;;;;;37.88;23.85;;;18.30;53.60;;;;;;5109809;28;20035;-73
2022/03/23 07:11:14;;;;;;;24.08;16.05;;;19.80;51.80;;;;;;5105595;28;20043;-73
2022/03/23 07:14:18;;;;;;;21.15;14.00;;;19.70;52.30;;;;;;5110203;28;20039;-73
2022/03/23 07:17:23;;;;;;;18.42;13.65;;;20.20;52.40;;;;;;5113043;28;20071;-73
2022/03/23 07:20:27;;;;;;;21.00;14.45;;;21.00;51.70;;;;;;5104330;28;20045;-71
2022/03/23 07:23:34;;;;;;;19.80;13.43;;;21.30;49.90;;;;;;5104683;28;20145;-73
2022/03/23 07:26:39;;;;;;;21.30;12.93;;;20.50;51.10;;;;;;5103068;28;20476;-73
2022/03/23 07:29:43;;;;;;;20.20;12.88;;;20.20;52.10;;;;;;5106289;28;20043;-73
2022/03/23 07:32:47;;;;;;;19.30;13.35;;;22.00;49.20;;;;;;5110436;28;20054;-73
2022/03/23 07:35:51;;;;;;;21.45;12.95;;;21.00;50.10;;;;;;5109496;28;20046;-73
2022/03/23 07:38:57;;;;;;;28.27;15.82;;;19.40;51.10;;;;;;5098927;28;20058;-73
2022/03/23 07:42:03;;;;;;;20.13;13.13;;;18.20;54.20;;;;;;5103254;28;20046;-73
2022/03/23 07:45:08;;;;;;;17.90;13.10;;;18.60;52.20;;;;;;5105424;28;20042;-73
2022/03/23 07:48:13;;;;;;;19.13;11.77;;;19.70;51.40;;;;;;5106789;28;20042;-73
2022/03/23 07:51:16;;;;;;;17.88;11.20;;;20.20;50.00;;;;;;5106725;28;20042;-73
2022/03/23 07:54:22;;;;;;;18.13;10.77;;;20.10;48.30;;;;;;5107573;28;20169;-71
2022/03/23 07:57:26;;;;;;;16.42;11.40;;;21.00;48.40;;;;;;5107178;28;20043;-73
2022/03/23 08:00:31;;;;;;;15.32;10.57;;;18.80;50.60;;;;;;5107266;28;20501;-73
2022/03/23 08:03:34;;;;;;;15.85;10.88;;;17.80;52.40;;;;;;5103061;28;20055;-72
2022/03/23 08:06:38;;;;;;;17.17;10.02;;;18.80;52.60;;;;;;5097712;28;20042;-73
2022/03/23 08:09:42;;;;;;;16.90;10.18;;;21.20;50.80;;;;;;5104906;28;20047;-73
2022/03/23 08:12:47;;;;;;;17.23;10.20;;;22.10;49.60;;;;;;5103758;28;20504;-73
2022/03/23 08:15:52;;;;;;;14.88;10.43;;;22.10;49.30;;;;;;5099916;28;20043;-73
2022/03/23 08:18:56;;;;;;;12.85;9.85;;;22.00;49.30;;;;;;5107950;28;20331;-73
2022/03/23 08:21:59;;;;;;;15.13;10.27;;;22.20;49.00;;;;;;5109123;28;20038;-73
2022/03/23 08:25:04;;;;;;;12.13;9.75;;;20.90;48.50;;;;;;5103226;28;20046;-73
2022/03/23 08:28:11;;;;;;;17.42;11.75;;;22.30;48.40;;;;;;5101462;28;20047;-73
2022/03/23 08:31:15;;;;;;;19.98;10.85;;;21.60;48.70;;;;;;5108032;28;20054;-73
2022/03/23 08:34:19;;;;;;;14.38;9.50;;;23.70;48.00;;;;;;5100729;28;20483;-74
2022/03/23 08:37:26;;;;;;;13.43;9.93;;;24.30;46.40;;;;;;5099742;28;20031;-73
2022/03/23 08:40:30;;;;;;;15.27;9.77;;;23.10;45.90;;;;;;5100042;28;20038;-74
2022/03/23 08:43:35;;;;;;;13.40;9.30;;;22.90;47.60;;;;;;5103595;28;20046;-73
2022/03/23 08:46:39;;;;;;;15.63;9.80;;;23.60;46.80;;;;;;5102311;28;20051;-75
2022/03/23 08:49:46;;;;;;;17.38;10.48;;;21.60;46.10;;;;;;5107730;28;20136;-74
2022/03/23 08:52:52;;;;;;;13.30;9.50;;;20.80;48.70;;;;;;5107668;28;20386;-74
2022/03/23 08:55:55;;;;;;;13.27;9.77;;;24.40;44.70;;;;;;5103071;28;20043;-75
2022/03/23 08:58:59;;;;;;;14.00;10.25;;;24.10;44.40;;;;;;5106203;28;20046;-75
2022/03/23 09:02:04;;;;;;;12.65;9.77;;;26.30;43.60;;;;;;5109346;28;20066;-74
2022/03/23 09:05:10;;;;;;;12.25;9.40;;;25.00;40.50;;;;;;5106659;28;20366;-75
2022/03/23 09:08:14;;;;;;;17.20;9.35;;;26.70;42.60;;;;;;5102280;28;20042;-72
2022/03/23 09:11:18;;;;;;;17.17;9.88;;;25.90;41.10;;;;;;5100752;28;20043;-71
2022/03/23 09:14:22;;;;;;;16.13;9.85;;;23.30;43.90;;;;;;5106285;28;20042;-72
2022/03/23 09:17:26;;;;;;;13.05;9.90;;;24.10;41.70;;;;;;5100783;28;20050;-72
2022/03/23 09:20:31;;;;;;;18.65;10.38;;;21.50;44.80;;;;;;5101323;28;20042;-73
2022/03/23 09:23:36;;;;;;;15.30;10.07;;;24.00;43.20;;;;;;5094613;28;20039;-72
2022/03/23 09:26:41;;;;;;;13.45;9.75;;;24.90;43.10;;;;;;5091371;28;20035;-73
2022/03/23 09:29:46;;;;;;;15.10;10.00;;;27.20;42.30;;;;;;5103733;28;20050;-73
2022/03/23 09:32:50;;;;;;;18.67;9.00;;;26.40;41.60;;;;;;5101900;28;20050;-72
2022/03/23 09:35:55;;;;;;;14.82;8.70;;;26.10;41.50;;;;;;5101963;28;20047;-72
2022/03/23 09:38:59;;;;;;;10.18;8.07;;;25.20;40.90;;;;;;5108223;28;20046;-72
2022/03/23 09:42:05;;;;;;;12.48;8.27;;;27.10;39.70;;;;;;5105852;28;20051;-72
2022/03/23 09:45:15;;;;;;;11.68;8.57;;;29.10;39.80;;;;;;5101567;28;20046;-64
2022/03/23 09:48:22;;;;;;;11.98;8.77;;;28.60;40.50;;;;;;5103723;28;20046;-63
2022/03/23 09:51:26;;;;;;;12.35;8.82;;;26.50;40.60;;;;;;5105298;28;20396;-72
2022/03/23 09:54:29;;;;;;;12.35;8.48;;;29.50;39.90;;;;;;5107003;28;20038;-73
2022/03/23 09:57:35;;;;;;;9.82;8.20;;;29.60;40.30;;;;;;5104803;28;20046;-63
2022/03/23 10:00:42;;;;;;;9.80;7.80;;;28.60;39.50;;;;;;5109329;28;20046;-63
2022/03/23 10:04:07;;;;;;;11.70;8.13;;;30.10;39.30;;;;;;5093071;28;20046;-64
2022/03/23 10:07:35;;;;;;;11.77;7.40;;;33.20;39.00;;;;;;5107210;28;20047;-63
2022/03/23 10:11:16;;;;;;;8.13;7.20;;;32.50;38.40;;;;;;5109858;28;20043;-63
2022/03/23 10:14:58;;;;;;;8.88;7.63;;;35.20;37.40;;;;;;5098330;28;20047;-63
2022/03/23 10:18:35;;;;;;;9.10;7.13;;;35.20;37.30;;;;;;5103287;28;20478;-64
2022/03/23 10:21:46;;;;;;;9.80;7.10;;;31.80;37.20;;;;;;5100413;28;20058;-64
2022/03/23 10:24:52;;;;;;;12.20;7.28;;;34.00;38.60;;;;;;5081026;28;20031;-64
2022/03/23 10:27:57;;;;;;;10.23;6.88;;;36.50;37.50;;;;;;5105482;28;20039;-64
2022/03/23 10:31:14;;;;;;;13.50;6.65;;;37.10;36.70;;;;;;5102580;28;20055;-65
2022/03/23 10:34:17;;;;;;;10.57;6.93;;;36.30;35.80;;;;;;5100359;28;20513;-73
2022/03/23 10:37:26;;;;;;;9.93;6.13;;;37.40;37.10;;;;;;5102970;28;20050;-64
2022/03/23 10:40:32;;;;;;;8.98;6.70;;;37.00;35.50;;;;;;5099015;28;20043;-64
2022/03/23 10:43:38;;;;;;;7.25;6.47;;;35.70;35.20;;;;;;5108114;28;20050;-73
2022/03/23 10:46:43;;;;;;;8.18;6.45;;;34.00;35.80;;;;;;5104099;28;20371;-72
2022/03/23 10:49:47;;;;;;;8.00;5.90;;;35.30;37.30;;;;;;5100787;28;20043;-72
2022/03/23 10:52:56;;;;;;;8.68;6.50;;;36.30;35.40;;;;;;5101418;28;20386;-64
2022/03/23 10:56:00;;;;;;;7.50;5.82;;;37.30;35.60;;;;;;5100430;28;20051;-65
2022/03/23 10:59:16;;;;;;;8.65;5.93;;;38.20;35.90;;;;;;5105434;28;20481;-64
2022/03/23 11:02:21;;;;;;;8.27;5.90;;;35.90;36.60;;;;;;5105080;28;20059;-65
2022/03/23 11:05:40;;;;;;;8.77;5.97;;;36.20;35.50;;;;;;5096991;28;20055;-65
2022/03/23 11:08:44;;;;;;;7.03;6.10;;;37.20;36.10;;;;;;5108923;28;20614;-65
2022/03/23 11:18:46;;;;;;;7.57;5.57;;;40.50;34.90;;;;;;5107876;28;20287;-65
2022/03/23 11:22:04;;;;;;;13.82;6.00;;;40.60;34.50;;;;;;5108657;28;20039;-65
2022/03/23 11:25:08;;;;;;;6.93;5.10;;;40.50;35.50;;;;;;5108866;28;20043;-72
2022/03/23 11:28:15;;;;;;;6.63;5.32;;;39.90;35.00;;;;;;5107880;28;20039;-65
2022/03/23 11:31:20;;;;;;;6.22;5.10;;;40.40;34.40;;;;;;5108510;28;20046;-65
2022/03/23 11:34:25;;;;;;;8.35;5.40;;;40.00;34.00;;;;;;5103999;28;20045;-65
2022/03/23 11:37:29;;;;;;;13.00;5.85;;;38.90;33.80;;;;;;5110430;28;20074;-65
2022/03/23 11:40:34;;;;;;;10.73;5.10;;;36.40;34.60;;;;;;5113279;28;20043;-65
2022/03/23 11:43:38;;;;;;;6.80;4.88;;;37.60;34.70;;;;;;5110234;28;20050;-65
2022/03/23 11:46:44;;;;;;;6.68;5.00;;;39.10;33.80;;;;;;5093605;28;20047;-65
2022/03/23 11:49:59;;;;;;;6.30;4.78;;;38.00;33.00;;;;;;5109560;28;20050;-72
2022/03/23 11:53:34;;;;;;;6.95;5.43;;;36.90;33.00;;;;;;5110207;28;20046;-65
2022/03/23 11:56:56;;;;;;;7.78;5.60;;;30.30;35.60;;;;;;5104325;28;20488;-64
2022/03/23 12:00:00;;;;;;;14.35;5.18;;;32.40;34.50;;;;;;5104949;28;20035;-64
2022/03/23 12:03:04;;;;;;;6.13;4.70;;;33.20;35.40;;;;;;5108192;28;20050;-73
2022/03/23 12:06:14;;;;;;;6.13;3.97;;;35.50;34.30;;;;;;5100975;28;20055;-65
2022/03/23 12:09:39;;;;;;;8.60;4.35;;;36.20;35.80;;;;;;5102678;28;20043;-72
2022/03/23 12:12:43;;;;;;;8.10;3.95;;;37.30;33.20;;;;;;5107719;28;20497;-65
2022/03/23 12:15:59;;;;;;;9.32;4.30;;;37.20;32.20;;;;;;5104600;28;20473;-65
2022/03/23 12:19:04;;;;;;;7.15;4.75;;;37.20;34.20;;;;;;5101643;28;20058;-73
2022/03/23 12:22:09;;;;;;;5.90;4.68;;;37.10;33.90;;;;;;5111647;28;20042;-65
2022/03/23 12:25:25;;;;;;;6.40;4.30;;;37.50;34.40;;;;;;5106373;28;20039;-73
2022/03/23 12:28:44;;;;;;;7.07;4.85;;;36.30;32.10;;;;;;5109388;28;20058;-73
2022/03/23 12:31:48;;;;;;;5.68;4.28;;;36.60;34.10;;;;;;5105366;28;20101;-73
2022/03/23 12:34:55;;;;;;;6.05;4.18;;;37.00;34.80;;;;;;5103939;28;20059;-65
2022/03/23 12:37:59;;;;;;;9.95;4.30;;;37.60;33.40;;;;;;5101821;28;20070;-65
2022/03/23 12:41:09;;;;;;;7.57;3.95;;;38.20;34.30;;;;;;5104434;28;20058;-72
2022/03/23 12:44:13;;;;;;;6.85;4.15;;;38.20;33.50;;;;;;5103696;28;20054;-73
2022/03/23 12:47:25;;;;;;;4.85;4.20;;;38.00;33.50;;;;;;5108536;28;20042;-65
2022/03/23 13:00:49;;;;;;;4.85;4.28;;;38.10;33.60;;;;;;5105177;28;20039;-73
2022/03/23 13:03:54;;;;;;;8.88;4.38;;;38.00;33.50;;;;;;5105909;28;20046;-73
2022/03/23 13:07:20;;;;;;;6.25;4.47;;;36.80;33.70;;;;;;5101006;28;20047;-72
2022/03/23 13:10:26;;;;;;;8.43;4.68;;;36.60;33.90;;;;;;5111383;28;20042;-73
2022/03/23 13:13:32;;;;;;;5.53;4.50;;;36.50;34.00;;;;;;5110974;28;20039;-65
2022/03/23 13:16:38;;;;;;;10.23;4.75;;;36.80;34.30;;;;;;5106126;28;20481;-65
2022/03/23 13:19:43;;;;;;;6.80;4.78;;;36.80;34.60;;;;;;5102147;28;20038;-73
2022/03/23 13:22:47;;;;;;;8.02;4.72;;;36.70;34.30;;;;;;5102260;28;20493;-65
2022/03/23 13:26:04;;;;;;;6.68;4.60;;;36.20;34.60;;;;;;5094189;28;20380;-64
2022/03/23 13:29:11;;;;;;;6.70;4.60;;;36.30;34.90;;;;;;5099070;28;20047;-65
2022/03/23 13:32:30;;;;;;;4.95;4.20;;;35.20;34.80;;;;;;5104795;28;20410;-65
2022/03/23 13:35:44;;;;;;;6.03;4.28;;;35.70;34.80;;;;;;5111710;28;20477;-65
2022/03/23 13:38:52;;;;;;;7.65;5.00;;;35.90;34.60;;;;;;5106882;28;20043;-73
2022/03/23 13:45:19;;;;;;;5.43;4.50;;;35.90;34.40;;;;;;5105767;28;20035;-73
2022/03/23 13:48:26;;;;;;;11.70;5.05;;;35.20;34.30;;;;;;5102737;28;20039;-73
2022/03/23 13:51:45;;;;;;;6.32;4.57;;;34.80;34.80;;;;;;5101457;28;20039;-73
2022/03/23 13:54:49;;;;;;;5.38;4.63;;;35.00;34.60;;;;;;5102011;28;20043;-65
2022/03/23 13:57:55;;;;;;;7.15;4.97;;;34.70;34.40;;;;;;5104902;28;20370;-73
2022/03/23 14:01:01;;;;;;;8.48;5.30;;;34.30;35.50;;;;;;5108092;28;20039;-72
2022/03/23 14:04:05;;;;;;;7.82;5.13;;;33.90;35.10;;;;;;5105685;28;20564;-72
2022/03/23 14:07:11;;;;;;;8.10;4.75;;;33.80;35.60;;;;;;5105399;28;20051;-73
2022/03/23 14:10:15;;;;;;;9.30;5.28;;;32.70;34.90;;;;;;5106936;28;20058;-72
2022/03/23 14:13:19;;;;;;;7.38;5.18;;;31.40;35.90;;;;;;5107159;28;20482;-72
2022/03/23 14:16:26;;;;;;;7.28;4.97;;;31.60;37.20;;;;;;5103746;28;20042;-64
2022/03/23 14:19:36;;;;;;;7.57;4.82;;;31.90;35.50;;;;;;5104935;28;20035;-67
2022/03/23 14:22:41;;;;;;;9.02;5.22;;;31.40;35.10;;;;;;5106036;28;20109;-75
2022/03/23 14:25:47;;;;;;;9.68;5.22;;;31.20;35.80;;;;;;5104392;28;20043;-63
2022/03/23 14:28:52;;;;;;;5.35;4.72;;;31.50;35.70;;;;;;5108488;28;20427;-73
2022/03/23 14:31:56;;;;;;;11.00;5.35;;;31.20;35.80;;;;;;5104550;28;20058;-72
2022/03/23 14:35:03;;;;;;;7.45;5.70;;;31.30;35.50;;;;;;5111188;28;20506;-72
2022/03/23 14:38:19;;;;;;;7.70;5.60;;;30.60;35.60;;;;;;5095351;28;20039;-67
2022/03/23 14:41:23;;;;;;;8.25;5.57;;;30.10;36.10;;;;;;5108500;28;20035;-67
2022/03/23 14:44:34;;;;;;;7.97;5.47;;;29.90;36.90;;;;;;5102182;28;20137;-66
2022/03/23 14:47:46;;;;;;;8.60;5.70;;;28.90;36.60;;;;;;5110455;28;20042;-66
2022/03/23 14:50:54;;;;;;;13.45;5.72;;;28.10;36.80;;;;;;5108026;28;20055;-74
2022/03/23 14:53:58;;;;;;;8.25;5.75;;;27.60;38.10;;;;;;5106919;28;20039;-65
2022/03/23 14:57:01;;;;;;;10.65;6.63;;;27.00;37.50;;;;;;5104946;28;20034;-74
2022/03/23 15:00:07;;;;;;;8.93;6.40;;;26.30;38.00;;;;;;5113503;28;20378;-65
2022/03/23 15:03:11;;;;;;;13.07;5.60;;;25.70;38.10;;;;;;5114121;28;20047;-65
2022/03/23 15:13:16;;;;;;;9.40;5.93;;;24.90;39.60;;;;;;5113823;28;20043;-74
2022/03/23 15:16:22;;;;;;;6.50;5.63;;;24.50;39.10;;;;;;5105499;28;20117;-74
2022/03/23 15:19:26;;;;;;;10.60;6.60;;;24.00;39.80;;;;;;5106114;28;20043;-74
2022/03/23 15:22:31;;;;;;;9.68;6.07;;;23.60;39.70;;;;;;5110382;28;20046;-74
2022/03/23 15:25:36;;;;;;;10.00;6.05;;;23.30;39.40;;;;;;5114485;28;20046;-65
2022/03/23 15:28:39;;;;;;;14.93;6.85;;;23.10;40.50;;;;;;5112142;28;20042;-64
2022/03/23 15:31:44;;;;;;;13.38;5.80;;;22.70;40.60;;;;;;5112096;28;20582;-65
2022/03/23 15:34:49;;;;;;;9.45;6.63;;;22.70;41.90;;;;;;5101365;28;20047;-64
2022/03/23 15:37:54;;;;;;;21.02;7.53;;;22.50;41.40;;;;;;5111889;28;20050;-64
2022/03/23 15:40:59;;;;;;;14.40;6.97;;;22.40;41.00;;;;;;5112658;28;20038;-64
2022/03/23 15:44:08;;;;;;;14.00;7.03;;;21.90;40.70;;;;;;5102776;28;20031;-63
2022/03/23 15:47:12;;;;;;;10.40;7.03;;;21.50;41.30;;;;;;5109784;28;20390;-64
2022/03/23 15:50:18;;;;;;;24.90;7.63;;;21.40;41.80;;;;;;5113299;28;20043;-64
2022/03/23 15:53:22;;;;;;;10.02;7.28;;;21.30;41.20;;;;;;5103674;28;20062;-65
2022/03/23 15:56:26;;;;;;;18.63;7.47;;;21.40;42.20;;;;;;5111645;28;20059;-65
2022/03/23 15:59:31;;;;;;;16.65;6.65;;;21.30;41.90;;;;;;5105115;28;20054;-64
2022/03/23 16:02:38;;;;;;;10.38;7.13;;;21.30;42.50;;;;;;5104583;28;20051;-64
2022/03/23 16:05:43;;;;;;;15.82;6.93;;;20.90;42.00;;;;;;5104408;28;20038;-64
2022/03/23 16:08:47;;;;;;;11.07;7.28;;;21.00;42.70;;;;;;5111186;28;20042;-64
2022/03/23 16:11:53;;;;;;;15.05;7.47;;;20.40;42.30;;;;;;5111210;28;20039;-65
2022/03/23 16:14:57;;;;;;;12.85;7.55;;;20.50;43.20;;;;;;5111987;28;20047;-64
2022/03/23 16:18:02;;;;;;;12.10;8.25;;;20.00;42.10;;;;;;5108276;28;20042;-65
2022/03/23 16:21:06;;;;;;;11.82;7.72;;;19.60;42.80;;;;;;5110897;28;20047;-65
2022/03/23 16:24:10;;;;;;;17.05;8.18;;;19.70;43.60;;;;;;5112372;28;20050;-64
2022/03/23 16:27:16;;;;;;;15.05;9.25;;;19.80;44.10;;;;;;5109947;28;20366;-64
2022/03/23 16:30:22;;;;;;;13.38;8.10;;;19.60;43.70;;;;;;5107704;28;20093;-64
2022/03/23 16:33:26;;;;;;;14.55;8.48;;;19.60;44.20;;;;;;5109519;28;20039;-65
2022/03/23 16:36:31;;;;;;;14.80;8.63;;;19.50;45.50;;;;;;5110147;28;20039;-65
2022/03/23 16:39:36;;;;;;;13.00;8.80;;;19.40;44.70;;;;;;5113029;28;20043;-65
2022/03/23 16:42:41;;;;;;;12.48;8.30;;;19.30;44.80;;;;;;5111574;28;20386;-64